Time;durP1;ratioP1;P1;durP2;ratioP2;P2;SDS_P1;SDS_P2;PMS_P1;PMS_P2;Temp;Humidity;BMP_temperature;BMP_pressure;BME280_temperature;BME280_humidity;BME280_pressure;Samples;Min_cycle;Max_cycle;Signal;HPM_P1;HPM_P2
2023/04/01 00:00:37;;;;;;;29.00;20.20;;;;;;;-146.25;100.00;52390.50;2087658;28;34987;-69
2023/04/01 00:01:39;;;;;;;28.08;19.58;;;;;;;-146.25;100.00;52416.84;2088399;28;20849;-70
2023/04/01 00:02:41;;;;;;;28.20;19.75;;;;;;;-146.25;100.00;52418.88;2088371;28;33677;-70
2023/04/01 00:03:44;;;;;;;26.52;19.65;;;;;;;-146.25;100.00;52410.78;2088268;28;33225;-70
2023/04/01 00:04:48;;;;;;;28.90;20.77;;;;;;;-146.25;100.00;52441.19;2087409;28;34541;-71
2023/04/01 00:05:50;;;;;;;25.85;19.02;;;;;;;-146.25;100.00;52427.00;2088531;28;33069;-70
2023/04/01 00:06:52;;;;;;;31.08;21.42;;;;;;;-146.25;100.00;52437.13;2080468;28;38224;-72
2023/04/01 00:07:53;;;;;;;30.13;19.75;;;;;;;-146.25;100.00;52388.47;2073443;28;32247;-71
2023/04/01 00:08:55;;;;;;;29.35;20.75;;;;;;;-146.25;100.00;52408.75;2080217;28;32944;-71
2023/04/01 00:09:57;;;;;;;27.85;20.13;;;;;;;-146.25;100.00;52410.78;2088293;28;35325;-71
2023/04/01 00:10:59;;;;;;;30.50;21.30;;;;;;;-146.25;100.00;52439.16;2088550;28;33133;-71
2023/04/01 00:12:01;;;;;;;30.02;20.40;;;;;;;-146.25;100.00;52410.78;2088151;28;39076;-70
2023/04/01 00:13:03;;;;;;;29.38;20.58;;;;;;;-146.25;100.00;52412.81;2079233;28;34820;-71
2023/04/01 00:14:08;;;;;;;29.75;20.38;;;;;;;-146.25;100.00;52394.56;2079881;28;32978;-70
2023/04/01 00:15:12;;;;;;;32.80;20.70;;;;;;;-146.25;100.00;52443.22;2079499;28;36218;-71
2023/04/01 00:16:15;;;;;;;28.85;20.98;;;;;;;-146.25;100.00;52402.66;2079882;28;33711;-71
2023/04/01 00:17:20;;;;;;;30.80;20.65;;;;;;;-146.25;100.00;52443.22;2089192;28;20037;-71
2023/04/01 00:18:25;;;;;;;28.92;20.67;;;;;;;-146.25;100.00;52408.75;2088004;28;35485;-72
2023/04/01 00:19:27;;;;;;;29.70;20.88;;;;;;;-146.25;100.00;52427.00;2088248;28;32539;-71
2023/04/01 00:20:30;;;;;;;30.08;20.63;;;;;;;-146.25;100.00;52453.34;2088515;28;31781;-71
2023/04/01 00:21:32;;;;;;;34.75;20.45;;;;;;;-146.25;100.00;52429.03;2087179;28;37743;-71
2023/04/01 00:22:34;;;;;;;31.73;21.58;;;;;;;-146.25;100.00;52424.97;2088092;28;28986;-72
2023/04/01 00:23:35;;;;;;;28.88;19.98;;;;;;;-146.25;100.00;52364.13;2088580;28;27395;-70
2023/04/01 00:24:38;;;;;;;28.40;21.75;;;;;;;-146.25;100.00;52392.53;2089168;28;20048;-71
2023/04/01 00:25:40;;;;;;;31.90;20.70;;;;;;;-146.25;100.00;52410.78;2088124;28;35738;-72
2023/04/01 00:26:42;;;;;;;31.10;21.45;;;;;;;-146.25;100.00;52435.09;2088223;28;36965;-72
2023/04/01 00:27:44;;;;;;;32.20;21.38;;;;;;;-146.25;100.00;52451.31;2088815;28;20049;-70
2023/04/01 00:28:47;;;;;;;26.85;20.80;;;;;;;-146.25;100.00;52424.97;2079039;28;37551;-70
2023/04/01 00:29:49;;;;;;;33.63;21.60;;;;;;;-146.25;100.00;52422.94;2079943;28;27897;-70
2023/04/01 00:30:51;;;;;;;28.42;20.58;;;;;;;-146.25;100.00;52416.84;2080324;28;20927;-70
2023/04/01 00:31:52;;;;;;;28.40;21.58;;;;;;;-146.25;100.00;52380.38;2079758;28;33349;-71
2023/04/01 00:32:55;;;;;;;36.33;22.98;;;;;;;-146.25;100.00;52388.47;2089051;28;20037;-70
2023/04/01 00:33:57;;;;;;;30.50;21.77;;;;;;;-146.25;100.00;52394.56;2088748;28;20042;-70
2023/04/01 00:34:59;;;;;;;30.90;21.60;;;;;;;-146.25;100.00;52439.16;2088728;28;21730;-70
2023/04/01 00:36:10;;;;;;;29.92;21.23;;;;;;;-146.25;100.00;52424.97;2087835;28;30894;-70
2023/04/01 00:37:12;;;;;;;30.27;21.77;;;;;;;-146.25;100.00;52424.97;2088609;28;20042;-72
2023/04/01 00:38:14;;;;;;;31.90;23.05;;;;;;;-146.25;100.00;52416.84;2081870;28;21791;-72
2023/04/01 00:39:16;;;;;;;34.03;22.80;;;;;;;-146.25;100.00;52408.75;2079790;28;29110;-72
2023/04/01 00:40:42;;;;;;;32.42;22.30;;;;;;;-146.25;100.00;52390.50;2087789;28;20123;-71
2023/04/01 00:41:47;;;;;;;30.30;22.02;;;;;;;-146.25;100.00;52445.25;2088193;28;29176;-71
2023/04/01 00:42:48;;;;;;;32.47;22.73;;;;;;;-146.25;100.00;52400.63;2088262;28;28865;-71
2023/04/01 00:43:51;;;;;;;32.90;23.15;;;;;;;-146.25;100.00;52396.59;2088807;28;20068;-72
2023/04/01 00:44:54;;;;;;;32.42;22.27;;;;;;;-146.25;100.00;52402.66;2088678;28;20046;-71
2023/04/01 00:45:56;;;;;;;31.73;23.83;;;;;;;-146.25;100.00;52396.59;2088715;28;24299;-72
2023/04/01 00:46:59;;;;;;;35.80;24.35;;;;;;;-146.25;100.00;52402.66;2088974;28;20099;-71
2023/04/01 00:48:16;;;;;;;35.40;24.48;;;;;;;-146.25;100.00;52418.88;2071484;28;20039;-72
2023/04/01 00:49:22;;;;;;;32.72;23.27;;;;;;;-146.25;100.00;52420.91;2075653;28;28724;-72
2023/04/01 00:50:28;;;;;;;36.35;24.45;;;;;;;-146.25;100.00;52441.19;2079534;28;22914;-72
2023/04/01 00:51:30;;;;;;;37.70;23.65;;;;;;;-146.25;100.00;52394.56;2080335;28;20916;-72
2023/04/01 00:52:32;;;;;;;35.60;25.20;;;;;;;-146.25;100.00;52447.28;2079545;28;20026;-72
2023/04/01 00:53:40;;;;;;;34.85;24.00;;;;;;;-146.25;100.00;52437.13;2079388;28;29844;-72
2023/04/01 00:54:49;;;;;;;37.10;25.83;;;;;;;-146.25;100.00;52418.88;2079957;28;20104;-72
2023/04/01 00:56:07;;;;;;;38.55;26.10;;;;;;;-146.25;100.00;52427.00;2072322;28;20045;-72
2023/04/01 00:57:19;;;;;;;36.08;24.33;;;;;;;-146.25;100.00;52429.03;2074481;28;20808;-72
2023/04/01 00:58:24;;;;;;;36.03;24.33;;;;;;;-146.25;100.00;52408.75;2072775;28;20046;-72
2023/04/01 00:59:41;;;;;;;38.72;25.77;;;;;;;-146.25;100.00;52388.47;2065217;28;20047;-71
2023/04/01 01:00:44;;;;;;;36.00;25.33;;;;;;;-146.25;100.00;52388.47;2065140;28;20844;-72
2023/04/01 01:01:45;;;;;;;37.95;25.95;;;;;;;-146.25;100.00;52433.06;2064507;28;27065;-72
2023/04/01 01:02:50;;;;;;;36.20;26.45;;;;;;;-146.25;100.00;52441.19;2071403;28;21174;-72
2023/04/01 01:03:52;;;;;;;37.97;26.27;;;;;;;-146.25;100.00;52443.22;2071740;28;20131;-72
2023/04/01 01:04:54;;;;;;;36.13;25.92;;;;;;;-146.25;100.00;52437.13;2080005;28;20839;-72
2023/04/01 01:06:28;;;;;;;36.15;26.27;;;;;;;-146.25;100.00;52445.25;2079642;28;22154;-72
2023/04/01 01:08:04;;;;;;;36.40;25.70;;;;;;;-146.25;100.00;52388.47;2088001;28;20037;-71
2023/04/01 01:09:32;;;;;;;35.88;24.60;;;;;;;-146.25;100.00;52414.84;2079181;28;26804;-71
2023/04/01 01:10:38;;;;;;;37.08;26.38;;;;;;;-146.25;100.00;52429.03;2066548;28;25566;-70
2023/04/01 01:11:51;;;;;;;36.90;25.83;;;;;;;-146.25;100.00;52392.53;2074000;28;20046;-72
2023/04/01 01:13:24;;;;;;;35.67;24.73;;;;;;;-146.25;100.00;52416.84;2081484;28;21200;-72
2023/04/01 01:14:53;;;;;;;37.58;25.65;;;;;;;-146.25;100.00;52420.91;2088940;28;20858;-72
2023/04/01 01:16:29;;;;;;;39.20;25.02;;;;;;;-146.25;100.00;52439.16;2087512;28;32753;-71
2023/04/01 01:17:47;;;;;;;35.15;24.02;;;;;;;-146.25;100.00;52394.56;2047022;28;20036;-72
2023/04/01 01:19:00;;;;;;;37.25;24.58;;;;;;;-146.25;100.00;52412.81;2079591;28;23106;-72
2023/04/01 01:20:38;;;;;;;36.70;24.83;;;;;;;-146.25;100.00;52431.06;2082403;28;31835;-72
2023/04/01 01:22:16;;;;;;;38.60;24.60;;;;;;;-146.25;100.00;52424.97;2079935;28;20978;-72
2023/04/01 01:23:51;;;;;;;35.90;24.27;;;;;;;-146.25;100.00;52429.03;2082225;28;32283;-72
2023/04/01 01:25:40;;;;;;;35.47;24.25;;;;;;;-146.25;100.00;52410.78;2088811;28;20079;-72
2023/04/01 01:26:53;;;;;;;35.22;23.23;;;;;;;-146.25;100.00;52437.13;2087909;28;31167;-71
2023/04/01 01:28:33;;;;;;;34.70;23.95;;;;;;;-146.25;100.00;52433.06;2079210;28;29195;-72
2023/04/01 01:30:23;;;;;;;34.67;23.10;;;;;;;-146.25;100.00;52384.41;2085577;28;20050;-71
2023/04/01 01:31:45;;;;;;;32.47;22.05;;;;;;;-146.25;100.00;52437.13;2088288;28;27878;-71
2023/04/01 01:33:06;;;;;;;32.88;22.70;;;;;;;-146.25;100.00;52400.63;2079166;28;28468;-70
2023/04/01 01:34:36;;;;;;;32.10;22.58;;;;;;;-146.25;100.00;52420.91;2084992;28;29459;-71
2023/04/01 01:35:55;;;;;;;31.48;22.30;;;;;;;-146.25;100.00;52412.81;2088634;28;20115;-71
2023/04/01 01:37:05;;;;;;;32.50;22.13;;;;;;;-146.25;100.00;52433.06;2079562;28;20962;-71
2023/04/01 01:38:17;;;;;;;33.22;22.88;;;;;;;-146.25;100.00;52392.53;2072371;28;20046;-71
2023/04/01 01:39:31;;;;;;;32.75;22.77;;;;;;;-146.25;100.00;52433.06;2073746;28;20091;-71
2023/04/01 01:40:36;;;;;;;33.00;22.83;;;;;;;-146.25;100.00;52445.25;2082571;28;20061;-71
2023/04/01 01:41:42;;;;;;;33.60;22.17;;;;;;;-146.25;100.00;52410.78;2071189;28;20043;-71
2023/04/01 01:42:51;;;;;;;33.97;22.10;;;;;;;-146.25;100.00;52374.28;2073809;28;20120;-71
2023/04/01 01:43:56;;;;;;;30.55;21.35;;;;;;;-146.25;100.00;52429.03;2071004;28;20043;-71
2023/04/01 01:44:59;;;;;;;31.83;22.25;;;;;;;-146.25;100.00;52396.59;2073000;28;20049;-72
2023/04/01 01:46:11;;;;;;;33.58;22.42;;;;;;;-146.25;100.00;52382.38;2079333;28;20919;-71
2023/04/01 01:47:16;;;;;;;31.38;21.73;;;;;;;-146.25;100.00;52424.97;2079423;28;20674;-71
2023/04/01 01:48:23;;;;;;;31.52;21.08;;;;;;;-146.25;100.00;52392.53;2073207;28;20053;-72
2023/04/01 01:49:26;;;;;;;35.17;22.42;;;;;;;-146.25;100.00;52388.47;2082930;28;20123;-71
2023/04/01 01:50:28;;;;;;;29.92;21.73;;;;;;;-146.25;100.00;52408.75;2080918;28;20081;-70
2023/04/01 01:51:30;;;;;;;32.38;22.10;;;;;;;-146.25;100.00;52402.66;2081423;28;20038;-71
2023/04/01 01:52:35;;;;;;;31.30;21.00;;;;;;;-146.25;100.00;52380.38;2080868;28;20097;-71
2023/04/01 01:53:39;;;;;;;33.58;22.15;;;;;;;-146.25;100.00;52392.53;2081280;28;21057;-71
2023/04/01 01:54:53;;;;;;;32.95;22.20;;;;;;;-146.25;100.00;52441.19;2089859;28;20073;-71
2023/04/01 01:55:57;;;;;;;30.92;22.20;;;;;;;-146.25;100.00;52427.00;2080911;28;20479;-71
2023/04/01 01:57:10;;;;;;;30.63;21.17;;;;;;;-146.25;100.00;52424.97;2072843;28;20140;-71
2023/04/01 01:58:43;;;;;;;31.45;21.58;;;;;;;-146.25;100.00;52416.84;2080930;28;20042;-71
2023/04/01 01:59:49;;;;;;;31.85;21.88;;;;;;;-146.25;100.00;52433.06;2084868;28;20096;-71
2023/04/01 02:01:04;;;;;;;25.92;17.23;;;;;;;-146.25;100.00;52416.84;2078040;28;20065;-70
2023/04/01 02:02:10;;;;;;;32.83;21.58;;;;;;;-146.25;100.00;52347.91;2057632;28;20043;-71
2023/04/01 02:03:15;;;;;;;30.60;20.52;;;;;;;-146.25;100.00;52433.06;2074696;28;20047;-70
2023/04/01 02:04:18;;;;;;;33.78;21.70;;;;;;;-146.25;100.00;52378.34;2088241;28;33005;-70
2023/04/01 02:05:25;;;;;;;33.33;21.67;;;;;;;-146.25;100.00;52416.84;2072700;28;20178;-70
2023/04/01 02:06:38;;;;;;;33.08;22.52;;;;;;;-146.25;100.00;52416.84;2065958;28;20130;-70
2023/04/01 02:07:45;;;;;;;33.40;21.92;;;;;;;-146.25;100.00;52384.41;2065393;28;20050;-70
2023/04/01 02:09:07;;;;;;;31.70;21.20;;;;;;;-146.25;100.00;52398.59;2065251;28;20074;-70
2023/04/01 02:10:09;;;;;;;30.67;20.25;;;;;;;-146.25;100.00;52431.06;2067064;28;20908;-70
2023/04/01 02:11:15;;;;;;;32.17;21.80;;;;;;;-146.25;100.00;52408.75;2064802;28;20817;-69
2023/04/01 02:12:24;;;;;;;30.63;21.75;;;;;;;-146.25;100.00;52396.59;2064523;28;20834;-70
2023/04/01 02:13:42;;;;;;;31.48;22.25;;;;;;;-146.25;100.00;52475.66;2074862;28;20049;-69
2023/04/01 02:15:05;;;;;;;32.33;21.42;;;;;;;-146.25;100.00;52416.84;2078968;28;20041;-70
2023/04/01 02:16:16;;;;;;;32.03;22.05;;;;;;;-146.25;100.00;52416.84;2066899;28;20058;-70
2023/04/01 02:17:26;;;;;;;31.33;20.70;;;;;;;-146.25;100.00;52416.84;2072359;28;20153;-70
2023/04/01 02:18:29;;;;;;;33.58;22.08;;;;;;;-146.25;100.00;52424.97;2073437;28;28018;-70
2023/04/01 02:19:41;;;;;;;34.60;21.70;;;;;;;-146.25;100.00;52420.91;2080241;28;25685;-70
2023/04/01 02:20:44;;;;;;;34.30;21.55;;;;;;;-146.25;100.00;52424.97;2064483;28;20165;-70
2023/04/01 02:21:49;;;;;;;30.75;20.85;;;;;;;-146.25;100.00;52461.47;2074454;28;20074;-70
2023/04/01 02:22:55;;;;;;;33.67;22.08;;;;;;;-146.25;100.00;52427.00;2087404;28;36350;-70
2023/04/01 02:24:01;;;;;;;33.88;22.40;;;;;;;-146.25;100.00;52384.41;2072263;28;30047;-70
2023/04/01 02:25:10;;;;;;;34.65;21.52;;;;;;;-146.25;100.00;52433.06;2073410;28;20868;-70
2023/04/01 02:26:14;;;;;;;35.58;22.40;;;;;;;-146.25;100.00;52384.41;2078386;28;20046;-71
2023/04/01 02:27:16;;;;;;;35.58;22.08;;;;;;;-146.25;100.00;52431.06;2072191;28;23950;-72
2023/04/01 02:28:20;;;;;;;30.42;20.67;;;;;;;-146.25;100.00;52412.81;2063983;28;20090;-71
2023/04/01 02:29:27;;;;;;;33.65;22.08;;;;;;;-146.25;100.00;52388.47;2065211;28;20129;-70
2023/04/01 02:30:33;;;;;;;33.85;22.02;;;;;;;-146.25;100.00;52437.13;2064296;28;20892;-71
2023/04/01 02:31:36;;;;;;;33.75;22.73;;;;;;;-146.25;100.00;52439.16;2074981;28;20162;-71
2023/04/01 02:32:39;;;;;;;32.17;21.83;;;;;;;-146.25;100.00;52380.38;2079639;28;20146;-71
2023/04/01 02:33:42;;;;;;;32.42;22.42;;;;;;;-146.25;100.00;52449.31;2072295;28;26126;-71
2023/04/01 02:34:44;;;;;;;32.95;22.27;;;;;;;-146.25;100.00;52424.97;2072224;28;20152;-71
2023/04/01 02:35:46;;;;;;;34.40;22.17;;;;;;;-146.25;100.00;52429.03;2064496;28;27791;-71
2023/04/01 02:36:51;;;;;;;32.45;22.23;;;;;;;-146.25;100.00;52429.03;2072029;28;24496;-72
2023/04/01 02:37:54;;;;;;;34.03;22.00;;;;;;;-146.25;100.00;52376.31;2080958;28;29948;-70
2023/04/01 02:39:02;;;;;;;32.47;21.73;;;;;;;-146.25;100.00;52433.06;2081295;28;20909;-71
2023/04/01 02:40:07;;;;;;;35.42;22.30;;;;;;;-146.25;100.00;52435.09;2071960;28;27890;-72
2023/04/01 02:41:09;;;;;;;32.67;21.20;;;;;;;-146.25;100.00;52396.59;2065291;28;20077;-70
2023/04/01 02:42:10;;;;;;;31.23;21.85;;;;;;;-146.25;100.00;52412.81;2064413;28;20051;-72
2023/04/01 02:43:16;;;;;;;32.70;22.17;;;;;;;-146.25;100.00;52388.47;2072186;28;20049;-71
2023/04/01 02:44:17;;;;;;;32.13;21.60;;;;;;;-146.25;100.00;52378.34;2064295;28;26183;-71
2023/04/01 02:45:19;;;;;;;32.33;21.85;;;;;;;-146.25;100.00;52392.53;2073004;28;28111;-72
2023/04/01 02:46:21;;;;;;;35.47;22.42;;;;;;;-146.25;100.00;52437.13;2071864;28;32934;-71
2023/04/01 02:47:25;;;;;;;36.10;21.70;;;;;;;-146.25;100.00;52418.88;2063788;28;20051;-71
2023/04/01 02:48:27;;;;;;;34.28;22.13;;;;;;;-146.25;100.00;52455.38;2064194;28;31327;-71
2023/04/01 02:49:29;;;;;;;31.83;20.80;;;;;;;-146.25;100.00;52424.97;2079516;28;20846;-71
2023/04/01 02:50:30;;;;;;;33.97;22.02;;;;;;;-146.25;100.00;52424.97;2080120;28;28280;-71
2023/04/01 02:51:33;;;;;;;29.67;20.92;;;;;;;-146.25;100.00;52441.19;2080378;28;32085;-71
2023/04/01 02:52:37;;;;;;;32.28;21.60;;;;;;;-146.25;100.00;52441.19;2072388;28;20085;-71
2023/04/01 02:53:40;;;;;;;29.20;20.88;;;;;;;-146.25;100.00;52402.66;2064804;28;20193;-71
2023/04/01 02:54:42;;;;;;;35.13;22.23;;;;;;;-146.25;100.00;52402.66;2064292;28;20050;-71
2023/04/01 02:55:46;;;;;;;32.92;21.10;;;;;;;-146.25;100.00;52422.94;2072081;28;22625;-71
2023/04/01 02:56:48;;;;;;;31.10;21.40;;;;;;;-146.25;100.00;52437.13;2081001;28;20042;-71
2023/04/01 02:57:50;;;;;;;32.30;21.23;;;;;;;-146.25;100.00;52449.31;2072314;28;20942;-71
2023/04/01 02:58:53;;;;;;;34.38;21.38;;;;;;;-146.25;100.00;52416.84;2071909;28;20041;-71
2023/04/01 02:59:55;;;;;;;33.67;22.77;;;;;;;-146.25;100.00;52429.03;2080762;28;29258;-71
2023/04/01 03:00:56;;;;;;;31.35;21.08;;;;;;;-146.25;100.00;52449.31;2081357;28;20047;-71
2023/04/01 03:01:58;;;;;;;32.72;21.45;;;;;;;-146.25;100.00;52424.97;2071957;28;27112;-71
2023/04/01 03:03:00;;;;;;;30.60;20.80;;;;;;;-146.25;100.00;52439.16;2064330;28;20125;-71
2023/04/01 03:04:02;;;;;;;29.80;20.90;;;;;;;-146.25;100.00;52408.75;2072101;28;24451;-71
2023/04/01 03:05:05;;;;;;;32.15;21.05;;;;;;;-146.25;100.00;52457.41;2079925;28;26294;-71
2023/04/01 03:06:12;;;;;;;32.78;20.45;;;;;;;-146.25;100.00;52422.94;2063707;28;27514;-71
2023/04/01 03:07:14;;;;;;;30.60;22.20;;;;;;;-146.25;100.00;52392.53;2057774;28;20051;-71
2023/04/01 03:08:16;;;;;;;31.80;21.63;;;;;;;-146.25;100.00;52398.59;2080499;28;20045;-71
2023/04/01 03:09:18;;;;;;;30.35;20.92;;;;;;;-146.25;100.00;52445.25;2088572;28;20160;-71
2023/04/01 03:10:20;;;;;;;30.23;20.73;;;;;;;-146.25;100.00;52441.19;2071645;28;22153;-71
2023/04/01 03:11:25;;;;;;;29.98;21.45;;;;;;;-146.25;100.00;52414.84;2071559;28;26640;-70
2023/04/01 03:12:27;;;;;;;31.13;21.73;;;;;;;-146.25;100.00;52427.00;2073145;28;20039;-71
2023/04/01 03:13:29;;;;;;;29.95;21.35;;;;;;;-146.25;100.00;52439.16;2072092;28;20039;-70
2023/04/01 03:14:31;;;;;;;32.58;21.17;;;;;;;-146.25;100.00;52424.97;2072271;28;20145;-71
2023/04/01 03:15:33;;;;;;;28.33;19.55;;;;;;;-146.25;100.00;52398.59;2080243;28;22740;-71
2023/04/01 03:16:35;;;;;;;30.40;20.50;;;;;;;-146.25;100.00;52422.94;2071857;28;20039;-71
2023/04/01 03:17:38;;;;;;;31.52;21.17;;;;;;;-146.25;100.00;52416.84;2064201;28;20090;-71
2023/04/01 03:18:40;;;;;;;30.45;20.15;;;;;;;-146.25;100.00;52429.03;2072252;28;23069;-71
2023/04/01 03:19:41;;;;;;;30.52;20.50;;;;;;;-146.25;100.00;52420.91;2080517;28;20089;-71
2023/04/01 03:20:44;;;;;;;30.60;20.55;;;;;;;-146.25;100.00;52392.53;2072073;28;20877;-71
2023/04/01 03:21:46;;;;;;;29.40;21.17;;;;;;;-146.25;100.00;52435.09;2071953;28;23571;-71
2023/04/01 03:22:48;;;;;;;31.38;21.05;;;;;;;-146.25;100.00;52435.09;2080697;28;20038;-71
2023/04/01 03:23:51;;;;;;;31.77;20.05;;;;;;;-146.25;100.00;52420.91;2080093;28;20073;-71
2023/04/01 03:24:52;;;;;;;31.13;20.15;;;;;;;-146.25;100.00;52431.06;2071944;28;25499;-71
2023/04/01 03:25:54;;;;;;;28.00;20.23;;;;;;;-146.25;100.00;52447.28;2072146;28;20054;-71
2023/04/01 03:26:56;;;;;;;31.67;20.95;;;;;;;-146.25;100.00;52420.91;2072363;28;20038;-71
2023/04/01 03:27:59;;;;;;;29.38;19.98;;;;;;;-146.25;100.00;52424.97;2072349;28;20176;-71
2023/04/01 03:29:01;;;;;;;29.95;20.55;;;;;;;-146.25;100.00;52449.31;2071898;28;20085;-71
2023/04/01 03:30:05;;;;;;;28.60;20.23;;;;;;;-146.25;100.00;52422.94;2080308;28;20050;-71
2023/04/01 03:31:13;;;;;;;28.58;20.33;;;;;;;-146.25;100.00;52441.19;2071072;28;20108;-71
2023/04/01 03:32:21;;;;;;;31.08;19.67;;;;;;;-146.25;100.00;52424.97;2067017;28;20055;-71
2023/04/01 03:33:25;;;;;;;30.25;20.77;;;;;;;-146.25;100.00;52443.22;2071855;28;20055;-71
2023/04/01 03:34:27;;;;;;;30.88;20.10;;;;;;;-146.25;100.00;52412.81;2072047;28;20035;-71
2023/04/01 03:35:29;;;;;;;29.42;20.77;;;;;;;-146.25;100.00;52394.56;2072421;28;20042;-71
2023/04/01 03:36:31;;;;;;;31.13;19.60;;;;;;;-146.25;100.00;52424.97;2081279;28;20042;-71
2023/04/01 03:37:33;;;;;;;31.17;21.15;;;;;;;-146.25;100.00;52424.97;2080973;28;20041;-71
2023/04/01 03:38:35;;;;;;;31.88;20.83;;;;;;;-146.25;100.00;52427.00;2080641;28;20057;-71
2023/04/01 03:39:37;;;;;;;32.03;21.40;;;;;;;-146.25;100.00;52402.66;2071573;28;31775;-70
2023/04/01 03:40:43;;;;;;;35.28;20.95;;;;;;;-146.25;100.00;52435.09;2071816;28;20112;-71
2023/04/01 03:41:46;;;;;;;34.38;20.80;;;;;;;-146.25;100.00;52437.13;2072132;28;20042;-71
2023/04/01 03:42:48;;;;;;;30.73;21.65;;;;;;;-146.25;100.00;52400.63;2071907;28;22218;-71
2023/04/01 03:43:50;;;;;;;30.30;21.20;;;;;;;-146.25;100.00;52445.25;2072016;28;20804;-71
2023/04/01 03:44:52;;;;;;;33.55;21.13;;;;;;;-146.25;100.00;52398.59;2072326;28;20042;-71
2023/04/01 03:45:59;;;;;;;31.00;21.42;;;;;;;-146.25;100.00;52424.97;2071710;28;20827;-70
2023/04/01 03:47:01;;;;;;;32.50;21.50;;;;;;;-146.25;100.00;52416.84;2064706;28;20051;-71
2023/04/01 03:48:06;;;;;;;34.95;22.52;;;;;;;-146.25;100.00;52429.03;2071992;28;20106;-71
2023/04/01 03:49:12;;;;;;;33.35;22.02;;;;;;;-146.25;100.00;52433.06;2080302;28;20038;-71
2023/04/01 03:50:14;;;;;;;36.17;21.52;;;;;;;-146.25;100.00;52441.19;2080590;28;21603;-71
2023/04/01 03:51:16;;;;;;;32.25;21.70;;;;;;;-146.25;100.00;52457.41;2071980;28;20039;-71
2023/04/01 03:52:18;;;;;;;33.35;20.95;;;;;;;-146.25;100.00;52427.00;2064075;28;20101;-71
2023/04/01 03:53:20;;;;;;;32.97;21.58;;;;;;;-146.25;100.00;52433.06;2071977;28;20664;-71
2023/04/01 03:54:24;;;;;;;32.38;21.88;;;;;;;-146.25;100.00;52396.59;2072014;28;20089;-71
2023/04/01 03:55:26;;;;;;;32.17;20.73;;;;;;;-146.25;100.00;52429.03;2063890;28;20094;-71
2023/04/01 03:56:28;;;;;;;30.17;20.40;;;;;;;-146.25;100.00;52392.53;2071507;28;24012;-71
2023/04/01 03:57:33;;;;;;;30.65;20.20;;;;;;;-146.25;100.00;52386.44;2080906;28;20050;-71
2023/04/01 03:58:44;;;;;;;28.67;19.85;;;;;;;-146.25;100.00;52388.47;2071692;28;20026;-71
2023/04/01 03:59:47;;;;;;;28.25;19.42;;;;;;;-146.25;100.00;52451.31;2063766;28;20808;-71
2023/04/01 04:00:49;;;;;;;28.83;20.23;;;;;;;-146.25;100.00;52396.59;2063733;28;20058;-71
2023/04/01 04:01:50;;;;;;;32.20;21.05;;;;;;;-146.25;100.00;52410.78;2072064;28;20054;-71
2023/04/01 04:02:52;;;;;;;28.42;20.20;;;;;;;-146.25;100.00;52388.47;2071801;28;20038;-71
2023/04/01 04:04:00;;;;;;;26.58;18.80;;;;;;;-146.25;100.00;52449.31;2064283;28;20051;-71
2023/04/01 04:05:02;;;;;;;28.80;19.10;;;;;;;-146.25;100.00;52431.06;2071666;28;29007;-71
2023/04/01 04:06:04;;;;;;;28.35;19.00;;;;;;;-146.25;100.00;52437.13;2071721;28;20148;-71
2023/04/01 04:07:06;;;;;;;30.42;19.83;;;;;;;-146.25;100.00;52380.38;2064173;28;20047;-71
2023/04/01 04:08:27;;;;;;;31.17;20.25;;;;;;;-146.25;100.00;52485.81;2074188;28;20791;-71
2023/04/01 04:09:33;;;;;;;30.25;19.27;;;;;;;-146.25;100.00;52424.97;2063934;28;20055;-72
2023/04/01 04:10:35;;;;;;;29.02;19.90;;;;;;;-146.25;100.00;52414.84;2063449;28;20097;-71
2023/04/01 04:11:39;;;;;;;26.98;19.27;;;;;;;-146.25;100.00;52453.34;2079655;28;33947;-71
2023/04/01 04:12:41;;;;;;;29.42;19.55;;;;;;;-146.25;100.00;52453.34;2080739;28;20053;-71
2023/04/01 04:13:44;;;;;;;25.67;18.45;;;;;;;-146.25;100.00;52437.13;2071699;28;20167;-71
2023/04/01 04:14:46;;;;;;;28.73;19.23;;;;;;;-146.25;100.00;52443.22;2063789;28;20086;-70
2023/04/01 04:15:47;;;;;;;28.60;18.65;;;;;;;-146.25;100.00;52416.84;2071575;28;20078;-71
2023/04/01 04:16:52;;;;;;;30.33;19.90;;;;;;;-146.25;100.00;52412.81;2071452;28;20182;-71
2023/04/01 04:17:53;;;;;;;28.33;19.05;;;;;;;-146.25;100.00;52388.47;2063793;28;20047;-71
2023/04/01 04:18:55;;;;;;;28.75;19.17;;;;;;;-146.25;100.00;52420.91;2071776;28;20066;-71
2023/04/01 04:19:59;;;;;;;28.17;19.48;;;;;;;-146.25;100.00;52416.84;2071904;28;20132;-71
2023/04/01 04:21:02;;;;;;;31.58;19.15;;;;;;;-146.25;100.00;52439.16;2064375;28;20920;-72
2023/04/01 04:22:05;;;;;;;28.30;19.23;;;;;;;-146.25;100.00;52414.84;2071730;28;20034;-71
2023/04/01 04:23:06;;;;;;;27.17;18.73;;;;;;;-146.25;100.00;52420.91;2071304;28;20112;-71
2023/04/01 04:24:10;;;;;;;31.02;19.27;;;;;;;-146.25;100.00;52427.00;2063393;28;20047;-71
2023/04/01 04:25:35;;;;;;;28.73;19.30;;;;;;;-146.25;100.00;52445.25;2071749;28;20053;-71
2023/04/01 04:26:37;;;;;;;27.48;17.98;;;;;;;-146.25;100.00;52420.91;2071724;28;20049;-71
2023/04/01 04:27:39;;;;;;;31.30;19.52;;;;;;;-146.25;100.00;52408.75;2071863;28;20828;-71
2023/04/01 04:28:43;;;;;;;26.70;18.25;;;;;;;-146.25;100.00;52433.06;2079830;28;20039;-71
2023/04/01 04:29:47;;;;;;;32.17;19.42;;;;;;;-146.25;100.00;52398.59;2071486;28;20042;-71
2023/04/01 04:30:52;;;;;;;29.73;19.40;;;;;;;-146.25;100.00;52457.41;2063942;28;20047;-71
2023/04/01 04:31:57;;;;;;;31.63;19.30;;;;;;;-146.25;100.00;52449.31;2064197;28;20046;-71
2023/04/01 04:32:59;;;;;;;27.63;18.33;;;;;;;-146.25;100.00;52465.53;2071993;28;20942;-71
2023/04/01 04:34:01;;;;;;;30.35;18.55;;;;;;;-146.25;100.00;52431.06;2079861;28;20188;-71
2023/04/01 04:35:08;;;;;;;28.38;17.52;;;;;;;-146.25;100.00;52376.31;2071518;28;20928;-71
2023/04/01 04:36:10;;;;;;;26.05;17.20;;;;;;;-146.25;100.00;52433.06;2071990;28;20169;-71
2023/04/01 04:37:12;;;;;;;26.83;17.90;;;;;;;-146.25;100.00;52406.72;2079895;28;20045;-69
2023/04/01 04:38:19;;;;;;;27.75;17.65;;;;;;;-146.25;100.00;52429.03;2071432;28;27535;-69
2023/04/01 04:39:23;;;;;;;25.13;18.15;;;;;;;-146.25;100.00;52408.75;2064508;28;20062;-69
2023/04/01 04:40:25;;;;;;;26.60;17.42;;;;;;;-146.25;100.00;52404.69;2072044;28;20079;-70
2023/04/01 04:41:26;;;;;;;27.02;17.30;;;;;;;-146.25;100.00;52422.94;2079470;28;20038;-69
2023/04/01 04:42:28;;;;;;;27.42;17.85;;;;;;;-146.25;100.00;52418.88;2071441;28;20049;-70
2023/04/01 04:43:35;;;;;;;27.35;17.10;;;;;;;-146.25;100.00;52439.16;2064071;28;20048;-70
2023/04/01 04:44:37;;;;;;;30.95;18.70;;;;;;;-146.25;100.00;52457.41;2063844;28;20058;-69
2023/04/01 04:45:39;;;;;;;26.45;17.05;;;;;;;-146.25;100.00;52394.56;2063536;28;20051;-70
2023/04/01 04:46:41;;;;;;;26.75;17.98;;;;;;;-146.25;100.00;52435.09;2072130;28;20093;-70
2023/04/01 04:47:46;;;;;;;26.58;17.58;;;;;;;-146.25;100.00;52424.97;2071569;28;20030;-71
2023/04/01 04:48:48;;;;;;;24.92;17.48;;;;;;;-146.25;100.00;52449.31;2071674;28;20148;-71
2023/04/01 04:49:50;;;;;;;28.83;17.63;;;;;;;-146.25;100.00;52461.47;2071417;28;20042;-71
2023/04/01 04:50:52;;;;;;;29.80;18.80;;;;;;;-146.25;100.00;52406.72;2071429;28;20181;-70
2023/04/01 04:51:57;;;;;;;28.98;17.05;;;;;;;-146.25;100.00;52422.94;2071500;28;20046;-71
2023/04/01 04:53:02;;;;;;;26.08;17.98;;;;;;;-146.25;100.00;52414.84;2064330;28;20046;-71
2023/04/01 04:54:07;;;;;;;25.88;16.63;;;;;;;-146.25;100.00;52402.66;2080223;28;20989;-71
2023/04/01 04:55:26;;;;;;;26.15;17.73;;;;;;;-146.25;100.00;52372.25;2069465;28;20043;-71